Time;durP1;ratioP1;P1;durP2;ratioP2;P2;SDS_P1;SDS_P2;PMS_P1;PMS_P2;Temp;Humidity;BMP_temperature;BMP_pressure;BME280_temperature;BME280_humidity;BME280_pressure;Samples;Min_cycle;Max_cycle;Signal;HPM_P1;HPM_P2
2023/09/29 00:01:34;;;;;;;6.38;4.72;;;19.60;99.90;;;;;;4962712;28;20225;-82
2023/09/29 00:04:02;;;;;;;6.38;5.25;;;19.60;99.90;;;;;;4966369;28;20204;-83
2023/09/29 00:06:32;;;;;;;5.65;4.40;;;19.70;99.90;;;;;;4961192;28;20197;-82
2023/09/29 00:09:01;;;;;;;6.80;4.85;;;19.70;99.90;;;;;;4983543;28;20212;-82
2023/09/29 00:11:31;;;;;;;6.53;4.80;;;19.70;99.90;;;;;;4961378;28;20226;-83
2023/09/29 00:13:59;;;;;;;5.13;4.32;;;19.70;99.90;;;;;;4957028;28;20195;-82
2023/09/29 00:16:26;;;;;;;5.22;4.65;;;19.70;99.90;;;;;;4955689;28;20202;-82
2023/09/29 00:18:54;;;;;;;6.00;4.28;;;19.70;99.90;;;;;;4963759;28;20220;-82
2023/09/29 00:21:21;;;;;;;6.00;4.63;;;19.70;99.90;;;;;;4964651;28;20228;-82
2023/09/29 00:23:49;;;;;;;4.90;4.32;;;19.70;99.90;;;;;;4961014;28;20197;-83
2023/09/29 00:26:19;;;;;;;7.65;4.80;;;19.70;99.90;;;;;;4962689;28;20216;-82
2023/09/29 00:28:50;;;;;;;6.28;4.45;;;19.70;99.90;;;;;;4965825;28;20197;-82
2023/09/29 00:31:17;;;;;;;7.00;4.90;;;19.70;99.90;;;;;;4963101;28;20695;-82
2023/09/29 00:33:45;;;;;;;5.88;4.60;;;19.70;99.90;;;;;;4967446;28;20202;-82
2023/09/29 00:36:12;;;;;;;6.68;4.72;;;19.70;99.90;;;;;;4965974;28;20201;-82
2023/09/29 00:38:40;;;;;;;4.63;4.22;;;19.70;99.90;;;;;;4957346;28;20202;-83
2023/09/29 00:41:09;;;;;;;5.30;4.20;;;19.70;99.90;;;;;;4967251;28;20228;-82
2023/09/29 00:43:38;;;;;;;7.72;4.68;;;19.70;99.90;;;;;;4967776;28;20224;-82
2023/09/29 00:46:08;;;;;;;6.00;4.40;;;19.60;99.90;;;;;;4967325;28;20197;-82
2023/09/29 00:48:38;;;;;;;5.75;4.22;;;19.60;99.90;;;;;;4964489;28;20206;-82
2023/09/29 00:51:06;;;;;;;4.70;4.20;;;19.60;99.90;;;;;;4961888;28;20232;-82
2023/09/29 00:53:35;;;;;;;5.45;4.28;;;19.60;99.90;;;;;;4961924;28;20568;-82
2023/09/29 00:56:03;;;;;;;4.25;3.85;;;19.60;99.90;;;;;;4970009;28;20216;-82
2023/09/29 00:58:31;;;;;;;4.40;4.00;;;19.60;99.90;;;;;;4970838;28;20201;-82
2023/09/29 01:01:00;;;;;;;7.53;4.03;;;19.60;99.90;;;;;;4966328;28;20220;-83
2023/09/29 01:03:28;;;;;;;4.32;3.88;;;19.60;99.90;;;;;;4968478;28;20232;-82
2023/09/29 01:05:56;;;;;;;6.43;4.20;;;19.60;99.90;;;;;;4964405;28;20208;-82
2023/09/29 01:08:26;;;;;;;5.30;3.92;;;19.60;99.90;;;;;;4961323;28;20209;-82
2023/09/29 01:10:53;;;;;;;4.65;4.20;;;19.60;99.90;;;;;;4958385;28;20217;-83
2023/09/29 01:13:22;;;;;;;7.15;4.03;;;19.60;99.90;;;;;;4959877;28;20197;-83
2023/09/29 01:15:50;;;;;;;4.90;4.30;;;19.60;99.90;;;;;;4968238;28;20213;-83
2023/09/29 01:18:19;;;;;;;5.22;3.65;;;19.60;99.90;;;;;;4967703;28;20205;-83
2023/09/29 01:20:47;;;;;;;5.68;4.03;;;19.60;99.90;;;;;;4962280;28;20241;-83
2023/09/29 01:23:15;;;;;;;4.40;3.83;;;19.60;99.90;;;;;;4964500;28;20221;-83
2023/09/29 01:25:43;;;;;;;6.60;3.83;;;19.60;99.90;;;;;;4956650;28;20205;-83
2023/09/29 01:28:12;;;;;;;5.32;4.10;;;19.60;99.90;;;;;;4966126;28;20208;-82
2023/09/29 01:30:40;;;;;;;7.05;3.90;;;19.60;99.90;;;;;;4970070;28;20567;-83
2023/09/29 01:33:09;;;;;;;4.28;3.38;;;19.60;99.90;;;;;;4956341;28;20209;-82
2023/09/29 01:35:36;;;;;;;6.82;3.88;;;19.60;99.90;;;;;;4962963;28;20202;-82
2023/09/29 01:38:05;;;;;;;6.65;3.78;;;19.60;99.90;;;;;;4959833;28;20197;-83
2023/09/29 01:40:33;;;;;;;7.50;3.40;;;19.50;99.90;;;;;;4976245;28;20236;-82
2023/09/29 01:43:03;;;;;;;4.03;3.50;;;19.50;99.90;;;;;;4963865;28;20217;-83
2023/09/29 01:45:32;;;;;;;4.70;4.20;;;19.50;99.90;;;;;;4953549;28;20210;-83
2023/09/29 01:48:00;;;;;;;5.72;3.58;;;19.50;99.90;;;;;;4963586;28;20214;-83
2023/09/29 01:50:28;;;;;;;5.85;3.53;;;19.60;99.90;;;;;;4961844;28;20226;-83
2023/09/29 01:52:55;;;;;;;5.07;3.75;;;19.60;99.90;;;;;;4965551;28;20197;-83
2023/09/29 01:55:24;;;;;;;5.93;3.83;;;19.60;99.90;;;;;;4967387;28;20201;-82
2023/09/29 01:57:54;;;;;;;4.50;3.63;;;19.60;99.90;;;;;;4963270;28;20208;-82
2023/09/29 02:00:25;;;;;;;5.72;3.95;;;19.60;99.90;;;;;;4967080;28;20221;-82
2023/09/29 02:02:53;;;;;;;4.85;3.30;;;19.60;99.90;;;;;;4971623;28;20225;-82
2023/09/29 02:05:21;;;;;;;4.15;3.53;;;19.60;99.90;;;;;;4966243;28;20197;-83
2023/09/29 02:07:49;;;;;;;4.32;3.50;;;19.60;99.90;;;;;;4967879;28;20213;-83
2023/09/29 02:10:19;;;;;;;4.95;3.28;;;19.50;99.90;;;;;;4975729;28;20220;-83
2023/09/29 02:12:51;;;;;;;4.30;3.00;;;19.50;99.90;;;;;;4963333;28;20208;-82
2023/09/29 02:15:19;;;;;;;3.83;2.97;;;19.60;99.90;;;;;;4968263;28;20216;-82
2023/09/29 02:17:49;;;;;;;5.60;3.30;;;19.60;99.90;;;;;;4965275;28;20202;-82
2023/09/29 02:20:18;;;;;;;6.25;3.40;;;19.50;99.90;;;;;;4968798;28;20216;-82
2023/09/29 02:22:48;;;;;;;3.80;3.08;;;19.60;99.90;;;;;;4964118;28;20213;-82
2023/09/29 02:25:17;;;;;;;3.20;2.90;;;19.60;99.90;;;;;;4964253;28;20209;-83
2023/09/29 02:27:46;;;;;;;5.00;3.30;;;19.60;99.90;;;;;;4969195;28;20580;-82
2023/09/29 02:30:14;;;;;;;5.18;3.20;;;19.60;99.90;;;;;;4960133;28;20201;-83
2023/09/29 02:32:42;;;;;;;3.72;2.55;;;19.60;99.90;;;;;;4956402;28;20201;-82
2023/09/29 02:35:11;;;;;;;4.57;3.10;;;19.60;99.90;;;;;;4967630;28;20227;-82
2023/09/29 02:37:39;;;;;;;6.60;3.15;;;19.60;99.90;;;;;;4974235;28;20688;-82
2023/09/29 02:40:15;;;;;;;5.53;3.08;;;19.60;99.90;;;;;;4969690;28;20220;-82
2023/09/29 02:42:44;;;;;;;5.28;2.90;;;19.60;99.90;;;;;;4973406;28;20201;-82
2023/09/29 02:45:12;;;;;;;3.45;2.72;;;19.60;99.90;;;;;;4972506;28;20201;-82
2023/09/29 02:47:41;;;;;;;2.53;2.33;;;19.70;99.90;;;;;;4973031;28;20206;-82
2023/09/29 02:50:11;;;;;;;4.18;3.15;;;19.70;99.90;;;;;;4992550;28;20205;-82
2023/09/29 02:52:51;;;;;;;4.28;2.95;;;19.70;99.90;;;;;;4965124;28;20596;-82
2023/09/29 02:55:19;;;;;;;4.05;3.00;;;19.70;99.90;;;;;;4977695;28;20211;-82
2023/09/29 02:57:47;;;;;;;3.65;2.55;;;19.70;99.90;;;;;;4974087;28;20201;-82
2023/09/29 03:00:18;;;;;;;3.38;2.63;;;19.60;99.90;;;;;;4969478;28;20205;-82
2023/09/29 03:02:46;;;;;;;4.10;2.58;;;19.60;99.90;;;;;;4971289;28;20686;-82
2023/09/29 03:05:16;;;;;;;3.28;2.85;;;19.60;99.90;;;;;;4974490;28;20212;-82
2023/09/29 03:07:44;;;;;;;3.72;2.78;;;19.60;99.90;;;;;;4968713;28;20674;-82
2023/09/29 03:10:14;;;;;;;3.92;2.50;;;19.60;99.90;;;;;;4968796;28;20213;-82
2023/09/29 03:12:42;;;;;;;2.92;2.30;;;19.60;99.90;;;;;;4964566;28;20205;-82
2023/09/29 03:15:11;;;;;;;3.72;2.60;;;19.60;99.90;;;;;;4982860;28;20209;-82
2023/09/29 03:17:39;;;;;;;2.70;2.40;;;19.60;99.90;;;;;;4971284;28;20201;-82
2023/09/29 03:20:10;;;;;;;4.30;2.70;;;19.60;99.90;;;;;;4988353;28;20201;-82
2023/09/29 03:22:39;;;;;;;3.72;2.80;;;19.70;99.90;;;;;;4963811;28;20205;-82
2023/09/29 03:25:09;;;;;;;3.08;2.47;;;19.70;99.90;;;;;;4974806;28;20221;-82
2023/09/29 03:27:38;;;;;;;5.30;2.78;;;19.70;99.90;;;;;;4969444;28;20201;-82
2023/09/29 03:30:08;;;;;;;3.65;2.55;;;19.70;99.90;;;;;;4967008;28;20210;-82
2023/09/29 03:32:36;;;;;;;4.53;2.65;;;19.70;99.90;;;;;;4968833;28;20205;-82
2023/09/29 03:35:05;;;;;;;5.95;2.90;;;19.70;99.90;;;;;;4968346;28;20193;-82
2023/09/29 03:37:35;;;;;;;4.82;2.53;;;19.70;99.90;;;;;;4968270;28;20220;-82
2023/09/29 03:40:08;;;;;;;4.35;2.70;;;19.60;99.90;;;;;;4961689;28;20198;-82
2023/09/29 03:42:37;;;;;;;4.10;2.83;;;19.60;99.90;;;;;;4974568;28;20208;-82
2023/09/29 03:45:06;;;;;;;3.67;2.53;;;19.60;99.90;;;;;;4973180;28;20225;-82
2023/09/29 03:47:34;;;;;;;3.95;3.03;;;19.60;99.90;;;;;;4969355;28;20209;-82
2023/09/29 03:50:04;;;;;;;3.80;2.88;;;19.50;99.90;;;;;;4961615;28;20673;-82
2023/09/29 03:52:33;;;;;;;3.67;2.83;;;19.60;99.90;;;;;;4968854;28;20200;-82
2023/09/29 03:55:00;;;;;;;3.08;2.78;;;19.50;99.90;;;;;;4969051;28;20202;-82
2023/09/29 03:57:29;;;;;;;3.97;3.17;;;19.50;99.90;;;;;;4967768;28;20578;-82
2023/09/29 03:59:56;;;;;;;3.25;2.95;;;19.50;99.90;;;;;;4969667;28;20213;-82
2023/09/29 04:02:25;;;;;;;4.45;3.05;;;19.50;99.90;;;;;;4970663;28;20201;-82
2023/09/29 04:04:53;;;;;;;4.20;3.20;;;19.50;99.90;;;;;;4968659;28;20228;-82
2023/09/29 04:07:20;;;;;;;3.55;2.90;;;19.50;99.90;;;;;;4964480;28;20212;-82
2023/09/29 04:09:48;;;;;;;5.25;3.33;;;19.40;99.90;;;;;;4968928;28;20209;-82
2023/09/29 04:12:15;;;;;;;5.00;3.15;;;19.40;99.90;;;;;;4969022;28;20221;-82
2023/09/29 04:14:44;;;;;;;4.63;3.58;;;19.40;99.90;;;;;;4965880;28;20204;-82
2023/09/29 04:17:13;;;;;;;4.32;3.10;;;19.40;99.90;;;;;;4966730;28;20201;-82
2023/09/29 04:19:40;;;;;;;4.28;3.15;;;19.40;99.90;;;;;;4963779;28;20580;-82
2023/09/29 04:22:07;;;;;;;4.68;4.03;;;19.30;99.90;;;;;;4957974;28;20233;-82
2023/09/29 04:24:36;;;;;;;5.63;3.88;;;19.30;99.90;;;;;;4963110;28;20225;-83
2023/09/29 04:27:03;;;;;;;4.28;3.72;;;19.30;99.90;;;;;;4972419;28;20206;-83
2023/09/29 04:29:30;;;;;;;4.05;3.63;;;19.30;99.90;;;;;;4984448;28;20212;-83
2023/09/29 04:31:59;;;;;;;3.72;3.17;;;19.30;99.90;;;;;;4961531;28;20611;-82
2023/09/29 04:34:27;;;;;;;4.45;3.40;;;19.30;99.90;;;;;;4963942;28;20201;-82
2023/09/29 04:36:54;;;;;;;4.40;3.95;;;19.30;99.90;;;;;;4964056;28;20202;-82
2023/09/29 04:39:22;;;;;;;4.60;3.70;;;19.40;99.90;;;;;;4968640;28;20205;-83
2023/09/29 04:41:49;;;;;;;3.92;3.55;;;19.40;99.90;;;;;;4968543;28;20581;-82
2023/09/29 04:44:17;;;;;;;5.55;3.58;;;19.40;99.90;;;;;;4959947;28;20226;-82
2023/09/29 04:46:45;;;;;;;5.22;3.45;;;19.40;99.90;;;;;;4962707;28;20193;-82
2023/09/29 04:49:14;;;;;;;4.30;3.03;;;19.30;99.90;;;;;;4972089;28;20201;-83
2023/09/29 04:51:43;;;;;;;5.03;3.40;;;19.30;99.90;;;;;;4961499;28;20236;-82
2023/09/29 04:54:11;;;;;;;4.50;3.60;;;19.30;99.90;;;;;;4961679;28;20205;-82
2023/09/29 04:56:39;;;;;;;5.68;3.88;;;19.20;99.90;;;;;;4964072;28;20201;-83
2023/09/29 04:59:06;;;;;;;6.22;4.05;;;19.30;99.90;;;;;;4960800;28;20213;-83
2023/09/29 05:01:34;;;;;;;4.07;3.67;;;19.30;99.90;;;;;;4958649;28;20225;-83
2023/09/29 05:04:02;;;;;;;6.00;4.03;;;19.30;99.90;;;;;;4962757;28;20235;-83
2023/09/29 05:06:31;;;;;;;5.30;3.78;;;19.30;99.90;;;;;;4956494;28;20216;-82
2023/09/29 05:09:00;;;;;;;6.15;3.90;;;19.20;99.90;;;;;;4965264;28;20573;-82
2023/09/29 05:11:29;;;;;;;4.75;4.18;;;19.20;99.90;;;;;;4953205;28;20225;-82
2023/09/29 05:13:56;;;;;;;5.85;4.00;;;19.20;99.90;;;;;;4961257;28;20228;-83
2023/09/29 05:16:24;;;;;;;4.25;3.85;;;19.20;99.90;;;;;;4968051;28;20212;-83
2023/09/29 05:18:53;;;;;;;4.03;3.55;;;19.10;99.90;;;;;;4971566;28;20209;-82
2023/09/29 05:21:22;;;;;;;5.30;3.70;;;19.10;99.90;;;;;;4956631;28;20232;-82
2023/09/29 05:23:51;;;;;;;4.60;3.47;;;19.10;99.90;;;;;;4958571;28;20197;-82
2023/09/29 05:26:19;;;;;;;3.70;3.40;;;19.00;99.90;;;;;;4966305;28;20209;-82
2023/09/29 05:28:49;;;;;;;4.95;3.92;;;19.00;99.90;;;;;;4972164;28;20208;-82
2023/09/29 05:31:17;;;;;;;5.63;3.72;;;19.10;99.90;;;;;;4956571;28;20240;-82
2023/09/29 05:33:44;;;;;;;4.03;3.45;;;19.00;99.90;;;;;;4964556;28;20205;-82
2023/09/29 05:36:13;;;;;;;6.22;3.60;;;19.10;99.90;;;;;;4963547;28;20221;-81
2023/09/29 05:38:40;;;;;;;5.57;3.42;;;19.10;99.90;;;;;;4966645;28;20217;-81
2023/09/29 05:41:10;;;;;;;4.78;3.80;;;19.10;99.90;;;;;;4968220;28;20705;-81
2023/09/29 05:43:37;;;;;;;6.72;3.58;;;19.10;99.90;;;;;;4966747;28;20210;-82
2023/09/29 05:46:05;;;;;;;5.07;3.30;;;19.20;99.90;;;;;;4961198;28;20593;-82
2023/09/29 05:48:33;;;;;;;4.15;3.70;;;19.10;99.90;;;;;;4964281;28;20201;-81
2023/09/29 05:51:21;;;;;;;4.53;3.40;;;19.20;99.90;;;;;;4979151;28;20224;-82
2023/09/29 05:53:51;;;;;;;3.40;3.10;;;19.20;99.90;;;;;;4960189;28;20197;-81
2023/09/29 05:56:20;;;;;;;5.25;3.15;;;19.30;99.90;;;;;;4961881;28;20202;-82
2023/09/29 05:58:49;;;;;;;8.52;3.88;;;19.30;99.90;;;;;;4962731;28;20667;-82
2023/09/29 06:01:19;;;;;;;6.07;3.45;;;19.30;99.90;;;;;;4961980;28;20583;-82
2023/09/29 06:03:48;;;;;;;4.40;3.42;;;19.30;99.90;;;;;;4961524;28;20224;-82
2023/09/29 06:06:16;;;;;;;4.53;3.60;;;19.30;99.90;;;;;;4970747;28;20682;-82
2023/09/29 06:08:47;;;;;;;7.20;3.70;;;19.40;99.90;;;;;;4964621;28;20683;-82
2023/09/29 06:11:15;;;;;;;4.30;3.90;;;19.40;99.90;;;;;;4962601;28;20232;-81
2023/09/29 06:13:43;;;;;;;3.72;3.40;;;19.40;99.90;;;;;;4961816;28;20200;-81
2023/09/29 06:16:11;;;;;;;6.47;3.92;;;19.40;99.90;;;;;;4963327;28;20208;-82
2023/09/29 06:18:38;;;;;;;5.63;3.63;;;19.50;99.90;;;;;;4957449;28;20583;-81
2023/09/29 06:21:06;;;;;;;24.77;9.07;;;19.50;99.90;;;;;;4966255;28;20236;-80
2023/09/29 06:23:33;;;;;;;27.98;9.23;;;19.50;99.90;;;;;;4965733;28;20221;-82
2023/09/29 06:26:01;;;;;;;10.40;5.78;;;19.60;99.90;;;;;;4961106;28;20223;-81
2023/09/29 06:28:29;;;;;;;6.43;3.80;;;19.90;99.90;;;;;;4964536;28;20644;-81
2023/09/29 06:30:58;;;;;;;9.10;4.45;;;19.80;99.90;;;;;;4962978;28;20229;-82
2023/09/29 06:33:26;;;;;;;4.65;3.53;;;19.90;99.90;;;;;;4965780;28;20209;-81
2023/09/29 06:35:54;;;;;;;7.93;4.43;;;19.80;99.90;;;;;;4965220;28;20202;-81
2023/09/29 06:38:21;;;;;;;4.32;3.50;;;19.90;99.90;;;;;;4960141;28;20216;-81
2023/09/29 06:40:49;;;;;;;5.88;3.30;;;19.90;99.90;;;;;;4966573;28;20237;-83
2023/09/29 06:43:17;;;;;;;4.50;3.45;;;19.90;99.90;;;;;;4964868;28;20220;-83
2023/09/29 06:45:45;;;;;;;6.55;3.70;;;19.90;99.90;;;;;;4971378;28;20220;-83
2023/09/29 06:48:13;;;;;;;8.13;4.13;;;19.90;99.90;;;;;;4951663;28;20217;-83
2023/09/29 06:50:41;;;;;;;7.40;4.32;;;20.00;99.90;;;;;;4951513;28;20229;-83
2023/09/29 06:53:08;;;;;;;5.78;3.40;;;20.00;99.90;;;;;;4957267;28;20209;-83
2023/09/29 06:55:36;;;;;;;6.35;3.60;;;20.10;99.90;;;;;;4962919;28;20675;-83
2023/09/29 06:58:04;;;;;;;5.20;3.40;;;20.20;99.90;;;;;;4957641;28;20288;-83
2023/09/29 07:00:32;;;;;;;3.92;3.13;;;20.10;99.90;;;;;;4958079;28;20225;-82
2023/09/29 07:03:00;;;;;;;4.43;3.53;;;20.10;99.90;;;;;;4963100;28;20206;-81
2023/09/29 07:05:29;;;;;;;4.30;3.13;;;20.10;99.90;;;;;;4952736;28;20225;-80
2023/09/29 07:07:56;;;;;;;4.05;3.50;;;20.20;99.90;;;;;;4964384;28;20678;-80
2023/09/29 07:10:26;;;;;;;4.30;3.30;;;20.20;99.90;;;;;;4970216;28;20228;-80
2023/09/29 07:12:53;;;;;;;7.10;3.63;;;20.30;99.90;;;;;;4960906;28;20217;-80
2023/09/29 07:15:20;;;;;;;4.40;3.20;;;20.30;99.90;;;;;;4963266;28;20194;-80
2023/09/29 07:17:48;;;;;;;4.50;3.17;;;20.30;99.90;;;;;;4950435;28;20214;-80
2023/09/29 07:20:15;;;;;;;8.30;4.30;;;20.30;99.90;;;;;;4958682;28;20206;-80
2023/09/29 07:22:44;;;;;;;10.57;5.82;;;20.40;99.90;;;;;;4965007;28;20212;-80
2023/09/29 07:25:14;;;;;;;6.53;3.60;;;20.50;99.90;;;;;;4964367;28;20240;-80
2023/09/29 07:27:41;;;;;;;6.07;3.88;;;20.60;99.90;;;;;;4958514;28;20201;-80
2023/09/29 07:30:09;;;;;;;13.20;5.45;;;20.50;99.90;;;;;;4971096;28;20192;-80
2023/09/29 07:32:40;;;;;;;15.73;6.75;;;20.50;99.90;;;;;;4960955;28;20210;-80
2023/09/29 07:35:31;;;;;;;24.63;8.52;;;20.50;99.90;;;;;;4959994;28;20194;-80
2023/09/29 07:38:07;;;;;;;5.53;3.17;;;20.60;99.90;;;;;;4958995;28;20190;-80
2023/09/29 07:40:37;;;;;;;12.85;5.72;;;20.50;99.90;;;;;;4965807;28;20225;-80
2023/09/29 07:43:05;;;;;;;7.57;4.63;;;20.70;99.90;;;;;;4960046;28;20201;-80
2023/09/29 07:45:33;;;;;;;6.32;4.18;;;20.70;99.90;;;;;;4968985;28;20217;-80
2023/09/29 07:48:00;;;;;;;4.57;3.30;;;20.80;99.90;;;;;;4961519;28;20202;-80
2023/09/29 07:50:28;;;;;;;6.55;3.15;;;20.80;99.90;;;;;;4961363;28;20707;-80
2023/09/29 07:52:55;;;;;;;5.03;3.20;;;20.90;99.90;;;;;;4955618;28;20213;-80
2023/09/29 07:55:24;;;;;;;4.63;2.88;;;20.90;99.90;;;;;;4962346;28;20212;-79
2023/09/29 07:57:58;;;;;;;5.22;3.25;;;20.90;99.90;;;;;;4966741;28;20198;-79
2023/09/29 08:00:26;;;;;;;3.35;3.05;;;20.90;99.90;;;;;;4963089;28;20233;-80
2023/09/29 08:02:53;;;;;;;3.40;3.10;;;20.80;99.90;;;;;;4963132;28;20205;-80
2023/09/29 08:05:21;;;;;;;3.97;2.90;;;20.90;99.90;;;;;;4971598;28;20331;-80
2023/09/29 08:07:48;;;;;;;3.72;3.08;;;20.90;99.90;;;;;;4972015;28;20201;-80
2023/09/29 08:10:16;;;;;;;4.40;3.00;;;21.00;99.90;;;;;;4959066;28;20292;-81
2023/09/29 08:12:44;;;;;;;6.43;3.10;;;21.10;99.90;;;;;;4967895;28;20205;-80
2023/09/29 08:15:13;;;;;;;3.72;3.30;;;21.30;99.90;;;;;;4982030;28;20209;-81
2023/09/29 08:17:41;;;;;;;5.10;3.28;;;21.30;99.90;;;;;;4963723;28;20210;-80
2023/09/29 08:20:09;;;;;;;4.22;2.63;;;21.40;99.90;;;;;;4955851;28;20209;-80
2023/09/29 08:22:37;;;;;;;6.75;3.40;;;21.50;99.90;;;;;;4959809;28;20639;-80
2023/09/29 08:25:07;;;;;;;9.20;3.70;;;21.60;99.90;;;;;;4955046;28;20208;-81
2023/09/29 08:27:35;;;;;;;6.40;3.55;;;21.60;99.90;;;;;;4961649;28;20209;-81
2023/09/29 08:30:05;;;;;;;5.60;3.65;;;21.60;99.90;;;;;;4954345;28;20205;-81
2023/09/29 08:32:32;;;;;;;4.90;3.53;;;21.60;99.90;;;;;;4959761;28;20681;-81
2023/09/29 08:35:00;;;;;;;4.78;3.22;;;21.60;99.90;;;;;;4965445;28;20208;-80
2023/09/29 08:37:28;;;;;;;3.00;2.70;;;21.70;99.90;;;;;;4969332;28;20215;-82
2023/09/29 08:39:55;;;;;;;4.75;2.75;;;21.70;99.90;;;;;;4961454;28;20545;-83
2023/09/29 08:42:37;;;;;;;6.63;2.97;;;21.80;99.90;;;;;;4968570;28;20225;-83
2023/09/29 08:45:10;;;;;;;4.53;2.75;;;21.90;99.90;;;;;;4957451;28;20198;-83
2023/09/29 08:47:38;;;;;;;3.95;3.08;;;22.00;99.90;;;;;;4955631;28;20222;-83
2023/09/29 08:50:06;;;;;;;6.78;3.10;;;22.00;99.90;;;;;;4958559;28;20664;-83
2023/09/29 08:52:34;;;;;;;2.83;2.60;;;22.20;99.90;;;;;;4962957;28;20206;-83
2023/09/29 08:55:03;;;;;;;6.63;2.88;;;22.30;99.90;;;;;;4975965;28;20205;-83
2023/09/29 08:57:31;;;;;;;3.72;2.83;;;22.30;99.90;;;;;;4971403;28;20220;-83
2023/09/29 09:00:01;;;;;;;4.50;2.90;;;22.20;99.90;;;;;;4956967;28;20197;-83
2023/09/29 09:02:30;;;;;;;3.50;3.00;;;22.30;99.90;;;;;;4963601;28;20660;-83
2023/09/29 09:04:57;;;;;;;4.30;2.50;;;22.20;99.90;;;;;;4963331;28;20664;-83
2023/09/29 09:07:26;;;;;;;4.47;3.00;;;22.20;99.90;;;;;;4964519;28;20804;-83
2023/09/29 09:09:55;;;;;;;4.60;2.75;;;22.20;99.90;;;;;;4962727;28;20244;-83
2023/09/29 09:12:32;;;;;;;5.18;3.60;;;22.10;99.90;;;;;;4962974;28;20707;-83
2023/09/29 09:15:00;;;;;;;3.10;2.80;;;22.20;99.90;;;;;;4970461;28;20201;-83
2023/09/29 09:17:29;;;;;;;4.35;3.53;;;22.20;99.90;;;;;;4963695;28;20193;-83
2023/09/29 09:19:57;;;;;;;4.50;3.50;;;22.20;99.90;;;;;;4965061;28;20197;-83
2023/09/29 09:22:27;;;;;;;8.13;3.00;;;22.30;99.90;;;;;;4974470;28;20228;-83
2023/09/29 09:24:58;;;;;;;7.28;3.13;;;22.30;99.90;;;;;;4964039;28;20213;-83
2023/09/29 09:27:26;;;;;;;3.90;3.20;;;22.40;99.90;;;;;;4969970;28;20232;-83
2023/09/29 09:29:54;;;;;;;6.00;3.05;;;22.40;99.90;;;;;;4960952;28;20205;-83
2023/09/29 09:32:29;;;;;;;3.40;2.92;;;22.40;99.90;;;;;;4974385;28;20225;-83
2023/09/29 09:34:57;;;;;;;4.25;3.35;;;22.50;99.90;;;;;;4971918;28;20210;-83
2023/09/29 09:37:27;;;;;;;6.60;3.80;;;22.50;99.90;;;;;;4963265;28;20205;-83
2023/09/29 09:39:56;;;;;;;4.45;3.08;;;22.50;99.90;;;;;;4969199;28;20213;-83
2023/09/29 09:42:26;;;;;;;4.15;3.25;;;22.40;99.90;;;;;;4963098;28;20229;-83
2023/09/29 09:44:56;;;;;;;6.45;3.10;;;22.50;99.90;;;;;;4962415;28;20209;-83
2023/09/29 09:47:26;;;;;;;4.75;3.30;;;22.50;99.90;;;;;;4967000;28;20228;-83
2023/09/29 09:49:57;;;;;;;4.80;3.33;;;22.60;99.90;;;;;;4963068;28;20215;-83
2023/09/29 09:52:26;;;;;;;4.63;3.33;;;22.60;99.90;;;;;;4960960;28;20237;-83
2023/09/29 09:54:56;;;;;;;4.47;3.33;;;22.60;99.90;;;;;;4963250;28;20655;-83
2023/09/29 09:57:31;;;;;;;5.20;3.28;;;22.60;99.90;;;;;;4955360;28;20225;-83
2023/09/29 10:00:06;;;;;;;3.72;3.10;;;22.80;99.90;;;;;;4956468;28;20201;-83
2023/09/29 10:02:39;;;;;;;4.50;3.10;;;22.80;99.90;;;;;;4972749;28;20219;-83
2023/09/29 10:05:16;;;;;;;5.10;3.13;;;22.80;99.90;;;;;;4971495;28;20204;-83
2023/09/29 10:07:46;;;;;;;3.95;3.35;;;22.70;99.90;;;;;;4956792;28;20225;-83
2023/09/29 10:10:25;;;;;;;4.38;2.95;;;22.60;99.90;;;;;;4962435;28;20209;-83
2023/09/29 10:12:56;;;;;;;5.25;3.28;;;22.50;99.90;;;;;;4962786;28;20206;-83
2023/09/29 10:15:27;;;;;;;4.07;3.40;;;22.30;99.90;;;;;;4961610;28;20206;-83
2023/09/29 10:17:55;;;;;;;3.22;2.92;;;22.30;99.90;;;;;;4962886;28;20197;-83
2023/09/29 10:20:53;;;;;;;;;;;;;;;;;;;;;
2023/09/29 10:23:35;;;;;;;;;;;;;;;;;;;;;
2023/09/29 10:26:03;;;;;;;3.33;2.75;;;22.10;99.90;;;;;;4954220;28;20216;-83
2023/09/29 10:28:32;;;;;;;4.28;3.30;;;22.00;99.90;;;;;;4963454;28;20209;-83
2023/09/29 10:31:08;;;;;;;5.05;3.30;;;22.00;99.90;;;;;;4964152;28;20232;-83
2023/09/29 10:33:50;;;;;;;4.68;2.90;;;21.90;99.90;;;;;;4964787;28;20560;-83
2023/09/29 10:36:20;;;;;;;5.47;3.65;;;21.90;99.90;;;;;;4964711;28;20198;-83
2023/09/29 10:38:48;;;;;;;5.32;3.40;;;21.90;99.90;;;;;;4959878;28;20197;-83
2023/09/29 10:41:16;;;;;;;5.63;3.53;;;22.00;99.90;;;;;;4954421;28;20720;-83
2023/09/29 10:43:47;;;;;;;5.82;3.03;;;22.10;99.90;;;;;;4962423;28;20208;-83
2023/09/29 10:46:16;;;;;;;4.35;3.10;;;22.20;99.90;;;;;;4955673;28;20217;-82
2023/09/29 10:49:06;;;;;;;5.68;3.20;;;22.20;99.90;;;;;;4960210;28;20228;-83
2023/09/29 10:51:37;;;;;;;5.07;3.55;;;22.30;99.90;;;;;;4962791;28;20236;-82
2023/09/29 10:54:07;;;;;;;5.07;3.00;;;22.30;99.90;;;;;;4956706;28;20193;-82
2023/09/29 10:56:39;;;;;;;5.45;3.30;;;22.30;99.90;;;;;;4955699;28;20689;-82
2023/09/29 10:59:08;;;;;;;5.82;3.20;;;22.30;99.90;;;;;;4966137;28;20204;-82
2023/09/29 11:01:36;;;;;;;6.20;3.40;;;22.30;99.90;;;;;;4969066;28;20228;-81
2023/09/29 11:04:07;;;;;;;5.75;3.08;;;22.20;99.90;;;;;;4959101;28;20197;-81
2023/09/29 11:06:45;;;;;;;4.72;3.40;;;22.40;99.90;;;;;;4962374;28;20205;-81
2023/09/29 11:09:17;;;;;;;5.40;3.20;;;22.60;99.90;;;;;;4962768;28;20206;-81
2023/09/29 11:11:45;;;;;;;5.43;3.13;;;22.80;99.90;;;;;;4966957;28;20217;-81
2023/09/29 11:14:12;;;;;;;8.93;3.35;;;23.00;99.90;;;;;;4960757;28;20531;-81
2023/09/29 11:16:40;;;;;;;4.55;2.78;;;23.10;99.90;;;;;;4961942;28;20205;-81
2023/09/29 11:19:10;;;;;;;4.85;2.80;;;23.30;99.90;;;;;;4995227;28;20193;-81
2023/09/29 11:21:38;;;;;;;7.07;3.90;;;23.10;99.90;;;;;;4967683;28;20237;-81
2023/09/29 11:24:09;;;;;;;7.18;3.80;;;23.20;99.90;;;;;;4968321;28;20565;-81
2023/09/29 11:26:40;;;;;;;6.70;3.90;;;23.10;99.90;;;;;;4956054;28;20565;-81
2023/09/29 11:29:09;;;;;;;6.57;3.80;;;23.10;99.90;;;;;;4974028;28;20193;-82
2023/09/29 11:31:38;;;;;;;5.38;4.05;;;23.20;99.90;;;;;;4965706;28;20239;-82
2023/09/29 11:34:08;;;;;;;10.07;3.67;;;23.30;99.90;;;;;;4966363;28;20206;-82
2023/09/29 11:36:35;;;;;;;6.07;3.65;;;23.10;99.90;;;;;;4967819;28;20206;-82
2023/09/29 11:39:03;;;;;;;4.82;3.20;;;23.10;99.90;;;;;;4966578;28;20197;-82
2023/09/29 11:41:33;;;;;;;5.78;3.70;;;23.10;99.90;;;;;;4963563;28;20256;-82
2023/09/29 11:44:01;;;;;;;8.15;3.75;;;23.10;99.90;;;;;;4968313;28;20193;-82
2023/09/29 11:46:28;;;;;;;6.35;4.15;;;23.20;99.90;;;;;;4970805;28;20205;-82
2023/09/29 11:48:56;;;;;;;7.40;3.78;;;23.00;99.90;;;;;;4978686;28;20228;-82
2023/09/29 11:51:24;;;;;;;8.00;3.78;;;23.00;99.90;;;;;;4965667;28;20225;-82
2023/09/29 11:53:51;;;;;;;5.78;3.70;;;23.00;99.90;;;;;;4959032;28;20206;-82
2023/09/29 11:56:19;;;;;;;6.68;4.05;;;22.90;99.90;;;;;;4970307;28;20216;-82
2023/09/29 11:58:53;;;;;;;10.25;4.40;;;23.30;99.90;;;;;;4969005;28;20212;-82
2023/09/29 12:01:21;;;;;;;7.70;3.55;;;23.50;99.90;;;;;;4967838;28;20229;-82
2023/09/29 12:03:50;;;;;;;9.25;3.95;;;23.60;99.90;;;;;;4968180;28;20220;-82
2023/09/29 12:06:17;;;;;;;6.65;3.60;;;24.00;99.90;;;;;;4969282;28;20217;-82
2023/09/29 12:08:45;;;;;;;7.88;3.58;;;23.90;99.90;;;;;;4972288;28;20221;-82
2023/09/29 12:11:18;;;;;;;7.10;3.70;;;23.70;99.90;;;;;;4967061;28;20318;-82
2023/09/29 12:13:48;;;;;;;5.88;3.30;;;23.70;99.90;;;;;;4967989;28;20205;-82
2023/09/29 12:16:22;;;;;;;7.80;3.03;;;23.70;99.90;;;;;;4954684;28;20206;-82
2023/09/29 12:19:08;;;;;;;7.45;3.78;;;23.50;99.90;;;;;;4965528;28;20209;-82
2023/09/29 12:21:37;;;;;;;6.78;3.75;;;23.30;99.90;;;;;;4961531;28;20233;-80
2023/09/29 12:24:05;;;;;;;6.50;3.28;;;23.20;99.90;;;;;;4960479;28;20204;-81
2023/09/29 12:26:33;;;;;;;7.75;4.03;;;23.10;99.90;;;;;;4960490;28;20201;-80
2023/09/29 12:29:05;;;;;;;6.65;3.38;;;22.90;99.90;;;;;;4962674;28;20232;-81
2023/09/29 12:31:33;;;;;;;8.57;3.65;;;23.00;99.90;;;;;;4964880;28;20226;-80
2023/09/29 12:34:01;;;;;;;6.35;3.70;;;23.30;99.90;;;;;;4968435;28;20663;-81
2023/09/29 12:36:28;;;;;;;8.10;4.20;;;23.50;99.90;;;;;;4967564;28;20208;-81
2023/09/29 12:39:04;;;;;;;6.18;3.38;;;23.70;99.90;;;;;;4962800;28;20201;-81
2023/09/29 12:41:42;;;;;;;9.98;4.18;;;23.80;99.90;;;;;;4956164;28;20225;-81
2023/09/29 12:44:09;;;;;;;7.63;4.15;;;23.50;99.90;;;;;;4966486;28;20193;-80
2023/09/29 12:46:38;;;;;;;7.75;4.38;;;23.30;99.90;;;;;;4966719;28;20205;-82
2023/09/29 12:49:07;;;;;;;7.95;3.83;;;23.10;99.90;;;;;;4961948;28;20222;-80
2023/09/29 12:51:36;;;;;;;8.93;4.45;;;23.00;99.90;;;;;;4958313;28;20230;-81
2023/09/29 12:54:04;;;;;;;7.72;4.22;;;23.00;99.90;;;;;;4951355;28;20205;-81
2023/09/29 12:56:31;;;;;;;6.47;4.07;;;22.90;99.90;;;;;;4955360;28;20208;-82
2023/09/29 12:59:00;;;;;;;9.95;4.70;;;22.90;99.90;;;;;;4958146;28;20210;-79